createdAt,value
2023-01-29T00:00:39.737Z,99980.78
2023-01-29T00:03:12.038Z,99995.39
2023-01-29T00:05:44.229Z,99996.27
2023-01-29T00:08:16.241Z,99986.86
2023-01-29T00:10:48.313Z,99994.67
2023-01-29T00:13:20.695Z,99986.94
2023-01-29T00:16:00.138Z,99986.94
2023-01-29T00:18:32.459Z,99982.66
2023-01-29T00:21:04.914Z,99980.09
2023-01-29T00:23:37.179Z,99986.98
2023-01-29T00:26:09.919Z,99975.80
2023-01-29T00:28:42.551Z,99972.36
2023-01-29T00:31:23.092Z,99966.30
2023-01-29T00:33:55.310Z,99973.16
2023-01-29T00:36:28.328Z,99972.27
2023-01-29T00:39:02.935Z,99974.81
2023-01-29T00:41:52.646Z,99967.91
2023-01-29T00:44:42.703Z,99968.77
2023-01-29T00:47:16.474Z,99963.61
2023-01-29T00:49:48.874Z,99957.58
2023-01-29T00:52:26.881Z,99953.37
2023-01-29T00:55:01.103Z,99962.83
2023-01-29T00:57:35.249Z,99960.30
2023-01-29T01:00:10.462Z,99962.08
2023-01-29T01:03:00.006Z,99958.62
2023-01-29T01:05:32.295Z,99966.39
2023-01-29T01:08:04.577Z,99964.75
2023-01-29T01:10:36.943Z,99965.63
2023-01-29T01:13:09.753Z,99960.47
2023-01-29T01:15:43.260Z,99960.48
2023-01-29T01:18:16.256Z,99957.03
2023-01-29T01:20:49.895Z,99950.16
2023-01-29T01:23:21.997Z,99953.57
2023-01-29T01:25:54.775Z,99952.73
2023-01-29T01:28:27.686Z,99965.63
2023-01-29T01:31:01.119Z,99960.48
2023-01-29T01:33:33.183Z,99960.47
2023-01-29T01:36:07.750Z,99956.15
2023-01-29T01:38:42.223Z,99955.25
2023-01-29T01:41:17.081Z,99953.57
2023-01-29T01:43:56.485Z,99948.46
2023-01-29T01:46:34.216Z,99946.73
2023-01-29T01:49:09.646Z,99939.78
2023-01-29T01:51:45.755Z,99937.27
2023-01-29T01:54:21.190Z,99941.55
2023-01-29T01:56:56.460Z,99931.24
2023-01-29T01:59:28.659Z,99933.83
2023-01-29T02:02:18.867Z,99933.00
2023-01-29T02:05:09.357Z,99934.77
2023-01-29T02:08:02.511Z,99927.02
2023-01-29T02:10:46.242Z,99917.60
2023-01-29T02:13:18.916Z,99906.43
2023-01-29T02:15:50.980Z,99910.71
2023-01-29T02:18:23.571Z,99916.75
2023-01-29T02:21:25.892Z,99920.19
2023-01-29T02:24:33.057Z,99909.00
2023-01-29T02:27:08.347Z,99892.66
2023-01-29T02:29:52.133Z,99895.23
2023-01-29T02:32:34.720Z,99892.66
2023-01-29T02:35:29.164Z,99875.48
2023-01-29T02:38:17.807Z,99878.93
2023-01-29T02:40:55.475Z,99886.63
2023-01-29T02:43:36.472Z,99882.34
2023-01-29T02:46:35.230Z,99884.92
2023-01-29T02:49:17.049Z,99860.01
2023-01-29T02:51:55.105Z,99858.31
2023-01-29T02:54:35.897Z,99858.31
2023-01-29T02:57:23.043Z,99857.44
2023-01-29T03:00:00.928Z,99853.98
2023-01-29T03:02:45.888Z,99847.13
2023-01-29T03:05:22.075Z,99851.39
2023-01-29T03:07:58.765Z,99835.05
2023-01-29T03:10:37.966Z,99841.97
2023-01-29T03:13:13.089Z,99845.42
2023-01-29T03:15:48.660Z,99830.84
2023-01-29T03:18:29.977Z,99835.15
2023-01-29T03:21:08.240Z,99828.30
2023-01-29T03:23:58.331Z,99828.30
2023-01-29T03:26:48.325Z,99816.28
2023-01-29T03:29:39.499Z,99813.69
2023-01-29T03:32:13.502Z,99804.22
2023-01-29T03:34:46.442Z,99792.14
2023-01-29T03:37:21.006Z,99785.98
2023-01-29T03:39:53.732Z,99785.25
2023-01-29T03:42:31.722Z,99791.22
2023-01-29T03:45:18.458Z,99788.66
2023-01-29T03:48:10.680Z,99779.22
2023-01-29T03:50:57.543Z,99774.08
2023-01-29T03:53:51.099Z,99768.94
2023-01-29T03:56:34.989Z,99765.53
2023-01-29T03:59:19.815Z,99761.26
2023-01-29T04:02:14.429Z,99754.41
2023-01-29T04:04:48.456Z,99754.41
2023-01-29T04:07:24.874Z,99749.25
2023-01-29T04:10:01.568Z,99749.09
2023-01-29T04:12:44.546Z,99741.45
2023-01-29T04:15:19.001Z,99747.46
2023-01-29T04:17:53.929Z,99734.59
2023-01-29T04:20:28.233Z,99739.74
2023-01-29T04:23:00.353Z,99737.11
2023-01-29T04:25:38.151Z,99731.94
2023-01-29T04:28:22.340Z,99734.50
2023-01-29T04:31:06.562Z,99738.77
2023-01-29T04:33:53.309Z,99743.03
2023-01-29T04:36:31.383Z,99730.12
2023-01-29T04:39:17.242Z,99727.53
2023-01-29T04:42:01.116Z,99721.52
2023-01-29T04:44:41.980Z,99724.95
2023-01-29T04:47:31.847Z,99729.24
2023-01-29T04:50:16.598Z,99724.08
2023-01-29T04:53:06.866Z,99718.04
2023-01-29T04:55:57.000Z,99725.77
2023-01-29T04:58:37.945Z,99724.93
2023-01-29T05:01:13.153Z,99724.88
2023-01-29T05:03:48.246Z,99712.04
2023-01-29T05:06:21.959Z,99709.41
2023-01-29T05:08:55.656Z,99708.58
2023-01-29T05:11:27.786Z,99711.16
2023-01-29T05:14:02.312Z,99712.86
2023-01-29T05:16:38.871Z,99699.09
2023-01-29T05:19:15.675Z,99706.83
2023-01-29T05:21:50.882Z,99704.25
2023-01-29T05:24:26.583Z,99711.08
2023-01-29T05:27:17.172Z,99716.30
2023-01-29T05:29:49.572Z,99716.34
2023-01-29T05:32:21.661Z,99718.04
2023-01-29T05:34:53.727Z,99720.66
2023-01-29T05:37:25.858Z,99712.87
2023-01-29T05:39:58.177Z,99709.48
2023-01-29T05:42:30.656Z,99708.62
2023-01-29T05:45:02.873Z,99714.64
2023-01-29T05:47:34.883Z,99709.48
2023-01-29T05:50:07.378Z,99715.50
2023-01-29T05:52:39.578Z,99714.64
2023-01-29T05:55:12.464Z,99710.34
2023-01-29T05:57:44.840Z,99704.30
2023-01-29T06:00:18.219Z,99711.98
2023-01-29T06:02:50.678Z,99718.89
2023-01-29T06:05:23.623Z,99722.30
2023-01-29T06:07:56.381Z,99717.15
2023-01-29T06:10:28.706Z,99717.14
2023-01-29T06:13:01.670Z,99717.98
2023-01-29T06:15:34.082Z,99721.37
2023-01-29T06:18:06.621Z,99712.72
2023-01-29T06:20:39.517Z,99707.53
2023-01-29T06:23:11.780Z,99708.30
2023-01-29T06:25:44.226Z,99685.12
2023-01-29T06:28:16.966Z,99688.60
2023-01-29T06:30:49.169Z,99699.80
2023-01-29T06:33:21.341Z,99692.06
2023-01-29T06:36:04.789Z,99696.31
2023-01-29T06:38:37.221Z,99696.30
2023-01-29T06:41:15.379Z,99697.92
2023-01-29T06:43:48.514Z,99698.75
2023-01-29T06:46:20.984Z,99696.98
2023-01-29T06:48:52.969Z,99690.09
2023-01-29T06:51:24.951Z,99696.06
2023-01-29T06:53:57.114Z,99680.53
2023-01-29T06:56:29.075Z,99671.06
2023-01-29T06:59:01.650Z,99668.48
2023-01-29T07:01:36.316Z,99671.90
2023-01-29T07:04:07.784Z,99663.30
2023-01-29T07:06:39.974Z,99658.11
2023-01-29T07:09:17.142Z,99651.16
2023-01-29T07:11:49.637Z,99657.14
2023-01-29T07:14:22.085Z,99645.91
2023-01-29T07:16:54.163Z,99649.20
2023-01-29T07:19:26.456Z,99652.59
2023-01-29T07:22:00.114Z,99659.47
2023-01-29T07:24:32.424Z,99651.67
2023-01-29T07:27:05.176Z,99644.76
2023-01-29T07:29:37.353Z,99648.20
2023-01-29T07:32:10.007Z,99638.69
2023-01-29T07:34:42.835Z,99642.08
2023-01-29T07:37:15.639Z,99627.34
2023-01-29T07:39:48.375Z,99637.54
2023-01-29T07:42:20.430Z,99631.41
2023-01-29T07:44:52.909Z,99627.02
2023-01-29T07:47:25.859Z,99626.89
2023-01-29T07:49:58.619Z,99622.53
2023-01-29T07:52:34.115Z,99621.52
2023-01-29T07:55:07.019Z,99617.05
2023-01-29T07:57:40.001Z,99607.41
2023-01-29T08:00:15.171Z,99609.92
2023-01-29T08:02:47.642Z,99608.11
2023-01-29T08:05:21.276Z,99613.26
2023-01-29T08:08:06.182Z,99619.16
2023-01-29T08:10:30.210Z,99614.73
2023-01-29T08:13:04.126Z,99595.69
2023-01-29T08:15:38.919Z,99592.27
2023-01-29T08:18:10.377Z,99593.08
2023-01-29T08:20:43.247Z,99590.47
2023-01-29T08:23:17.958Z,99597.36
2023-01-29T08:25:50.701Z,99587.02
2023-01-29T08:28:23.318Z,99599.03
2023-01-29T08:30:56.028Z,99594.61
2023-01-29T08:33:38.759Z,99589.55
2023-01-29T08:36:02.954Z,99590.33
2023-01-29T08:38:35.392Z,99591.97
2023-01-29T08:41:08.715Z,99593.64
2023-01-29T08:43:41.056Z,99589.05
2023-01-29T08:46:13.259Z,99594.28
2023-01-29T08:48:45.454Z,99592.50
2023-01-29T08:51:17.893Z,99589.91
2023-01-29T08:53:51.423Z,99589.16
2023-01-29T08:56:23.833Z,99589.16
2023-01-29T08:58:57.312Z,99596.62
2023-01-29T09:01:30.406Z,99583.05
2023-01-29T09:04:03.040Z,99580.48
2023-01-29T09:06:35.815Z,99579.68
2023-01-29T09:09:08.477Z,99577.98
2023-01-29T09:11:41.386Z,99578.06
2023-01-29T09:14:14.845Z,99574.75
2023-01-29T09:16:46.966Z,99581.67
2023-01-29T09:19:19.762Z,99581.89
2023-01-29T09:21:52.713Z,99572.55
2023-01-29T09:24:24.847Z,99574.22
2023-01-29T09:26:57.757Z,99562.09
2023-01-29T09:29:30.235Z,99573.28
2023-01-29T09:32:02.308Z,99565.44
2023-01-29T09:34:34.612Z,99563.80
2023-01-29T09:37:06.830Z,99550.75
2023-01-29T09:39:41.150Z,99548.95
2023-01-29T09:42:21.659Z,99549.35
2023-01-29T09:44:56.955Z,99547.97
2023-01-29T09:47:31.023Z,99547.17
2023-01-29T09:50:12.074Z,99541.11
2023-01-29T09:53:02.030Z,99549.70
2023-01-29T09:55:37.308Z,99541.19
2023-01-29T09:58:15.694Z,99535.09
2023-01-29T10:01:12.348Z,99523.03
2023-01-29T10:03:56.290Z,99517.86
2023-01-29T10:07:03.559Z,99506.59
2023-01-29T10:09:50.579Z,99513.40
2023-01-29T10:12:44.896Z,99514.14
2023-01-29T10:15:31.632Z,99504.75
2023-01-29T10:18:32.131Z,99498.53
2023-01-29T10:21:19.315Z,99494.34
2023-01-29T10:24:24.443Z,99476.98
2023-01-29T10:26:56.536Z,99477.81
2023-01-29T10:29:30.900Z,99463.44
2023-01-29T10:32:06.501Z,99446.22
2023-01-29T10:34:41.563Z,99455.65
2023-01-29T10:37:16.900Z,99454.66
2023-01-29T10:39:49.426Z,99443.41
2023-01-29T10:42:39.248Z,99449.25
2023-01-29T10:45:23.268Z,99423.36
2023-01-29T10:48:13.887Z,99420.56
2023-01-29T10:51:15.822Z,99418.56
2023-01-29T10:54:12.122Z,99421.73
2023-01-29T10:57:12.208Z,99416.13
2023-01-29T11:00:09.712Z,99437.42
2023-01-29T11:02:48.591Z,99417.67
2023-01-29T11:05:29.589Z,99417.92
2023-01-29T11:08:10.695Z,99401.55
2023-01-29T11:10:48.436Z,99406.70
2023-01-29T11:13:20.606Z,99395.40
2023-01-29T11:15:54.674Z,99404.75
2023-01-29T11:18:26.752Z,99395.58
2023-01-29T11:21:05.118Z,99394.80
2023-01-29T11:23:37.540Z,99393.06
2023-01-29T11:26:12.803Z,99401.70
2023-01-29T11:28:50.692Z,99401.48
2023-01-29T11:31:39.899Z,99389.17
2023-01-29T11:34:24.489Z,99393.30
2023-01-29T11:37:03.205Z,99387.22
2023-01-29T11:39:35.488Z,99382.31
2023-01-29T11:42:11.016Z,99376.92
2023-01-29T11:44:44.662Z,99387.52
2023-01-29T11:47:20.051Z,99377.48
2023-01-29T11:49:55.072Z,99370.73
2023-01-29T11:52:30.216Z,99376.27
2023-01-29T11:55:05.207Z,99379.83
2023-01-29T11:57:42.700Z,99374.79
2023-01-29T12:00:26.527Z,99368.78
2023-01-29T12:03:07.764Z,99363.61
2023-01-29T12:05:42.206Z,99362.56
2023-01-29T12:08:21.738Z,99360.70
2023-01-29T12:10:55.464Z,99363.21
2023-01-29T12:13:29.400Z,99360.66
2023-01-29T12:16:13.487Z,99365.98
2023-01-29T12:18:48.528Z,99364.55
2023-01-29T12:21:23.614Z,99365.69
2023-01-29T12:24:07.387Z,99365.17
2023-01-29T12:26:48.178Z,99354.30
2023-01-29T12:29:29.103Z,99362.16
2023-01-29T12:32:26.627Z,99355.55
2023-01-29T12:35:07.138Z,99360.98
2023-01-29T12:37:58.541Z,99361.11
2023-01-29T12:40:36.654Z,99362.10
2023-01-29T12:43:19.936Z,99365.80
2023-01-29T12:45:55.599Z,99362.45
2023-01-29T12:48:36.538Z,99362.54
2023-01-29T12:51:14.966Z,99365.16
2023-01-29T12:53:53.019Z,99361.70
2023-01-29T12:56:37.306Z,99365.86
2023-01-29T12:59:22.302Z,99364.23
2023-01-29T13:01:58.281Z,99358.27
2023-01-29T13:04:45.837Z,99370.27
2023-01-29T13:07:23.259Z,99360.02
2023-01-29T13:09:58.867Z,99362.59
2023-01-29T13:12:32.399Z,99342.81
2023-01-29T13:15:23.875Z,99349.80
2023-01-29T13:18:02.449Z,99338.59
2023-01-29T13:20:36.515Z,99338.75
2023-01-29T13:23:23.614Z,99337.03
2023-01-29T13:25:55.879Z,99337.13
2023-01-29T13:28:29.441Z,99338.78
2023-01-29T13:31:32.170Z,99341.45
2023-01-29T13:34:13.230Z,99332.02
2023-01-29T13:36:52.138Z,99341.60
2023-01-29T13:39:30.220Z,99336.47
2023-01-29T13:42:04.736Z,99332.39
2023-01-29T13:44:39.696Z,99333.41
2023-01-29T13:47:15.111Z,99331.56
2023-01-29T13:49:49.881Z,99323.93
2023-01-29T13:52:43.611Z,99324.05
2023-01-29T13:55:21.825Z,99322.41
2023-01-29T13:57:56.344Z,99325.02
2023-01-29T14:00:40.313Z,99325.80
2023-01-29T14:03:15.216Z,99319.02
2023-01-29T14:06:01.746Z,99319.83
2023-01-29T14:08:46.782Z,99308.81
2023-01-29T14:11:22.438Z,99306.25
2023-01-29T14:13:54.469Z,99298.45
2023-01-29T14:16:30.191Z,99302.06
2023-01-29T14:19:04.051Z,99301.20
2023-01-29T14:21:39.396Z,99306.34
2023-01-29T14:24:21.476Z,99311.42
2023-01-29T14:26:56.287Z,99294.23
2023-01-29T14:29:35.122Z,99290.79
2023-01-29T14:32:14.692Z,99302.81
2023-01-29T14:34:52.537Z,99292.42
2023-01-29T14:37:27.765Z,99293.20
2023-01-29T14:40:03.127Z,99300.11
2023-01-29T14:42:53.315Z,99294.14
2023-01-29T14:45:36.938Z,99296.61
2023-01-29T14:48:14.892Z,99295.69
2023-01-29T14:50:52.531Z,99300.86
2023-01-29T14:53:46.964Z,99296.44
2023-01-29T14:56:38.609Z,99288.72
2023-01-29T14:59:16.413Z,99293.98
2023-01-29T15:02:00.942Z,99287.05
2023-01-29T15:04:36.102Z,99285.34
2023-01-29T15:07:13.913Z,99272.42
2023-01-29T15:09:57.261Z,99278.45
2023-01-29T15:12:30.670Z,99278.39
2023-01-29T15:15:05.678Z,99291.27
2023-01-29T15:17:43.670Z,99287.95
2023-01-29T15:20:35.506Z,99289.76
2023-01-29T15:23:26.867Z,99280.41
2023-01-29T15:26:04.674Z,99290.81
2023-01-29T15:28:37.381Z,99294.45
2023-01-29T15:31:13.490Z,99291.96
2023-01-29T15:33:49.167Z,99292.93
2023-01-29T15:36:30.091Z,99296.45
2023-01-29T15:39:23.882Z,99299.92
2023-01-29T15:42:20.591Z,99294.79
2023-01-29T15:44:54.931Z,99297.42
2023-01-29T15:47:30.110Z,99283.74
2023-01-29T15:50:02.041Z,99285.52
2023-01-29T15:52:36.374Z,99279.55
2023-01-29T15:55:09.473Z,99282.18
2023-01-29T15:57:43.877Z,99287.29
2023-01-29T16:00:27.826Z,99282.77
2023-01-29T16:03:06.534Z,99275.30
2023-01-29T16:05:39.717Z,99273.61
2023-01-29T16:08:15.394Z,99279.71
2023-01-29T16:10:51.679Z,99265.97
2023-01-29T16:13:35.459Z,99261.70
2023-01-29T16:16:19.596Z,99265.06
2023-01-29T16:18:59.897Z,99263.45
2023-01-29T16:21:38.730Z,99263.45
2023-01-29T16:24:17.523Z,99265.27
2023-01-29T16:26:51.723Z,99263.53
2023-01-29T16:29:27.196Z,99267.00
2023-01-29T16:32:02.310Z,99263.48
2023-01-29T16:34:43.679Z,99272.02
2023-01-29T16:37:25.066Z,99263.45
2023-01-29T16:39:57.951Z,99258.20
2023-01-29T16:42:31.654Z,99254.73
2023-01-29T16:45:05.572Z,99258.18
2023-01-29T16:47:39.068Z,99258.18
2023-01-29T16:50:27.099Z,99264.73
2023-01-29T16:53:07.956Z,99264.98
2023-01-29T16:55:43.741Z,99263.17
2023-01-29T16:58:19.203Z,99252.08
2023-01-29T17:00:54.421Z,99243.45
2023-01-29T17:03:28.997Z,99243.48
2023-01-29T17:06:03.318Z,99237.48
2023-01-29T17:08:35.432Z,99241.70
2023-01-29T17:11:08.457Z,99243.14
2023-01-29T17:13:43.442Z,99229.58
2023-01-29T17:16:33.341Z,99232.07
2023-01-29T17:19:08.671Z,99231.33
2023-01-29T17:21:41.775Z,99224.44
2023-01-29T17:24:14.149Z,99221.86
2023-01-29T17:26:46.874Z,99218.48
2023-01-29T17:29:24.612Z,99215.92
2023-01-29T17:31:56.686Z,99214.13
2023-01-29T17:34:29.816Z,99223.64
2023-01-29T17:37:02.262Z,99233.09
2023-01-29T17:39:34.582Z,99227.00
2023-01-29T17:42:06.965Z,99222.75
2023-01-29T17:44:41.240Z,99227.16
2023-01-29T17:47:15.678Z,99231.44
2023-01-29T17:49:47.972Z,99223.75
2023-01-29T17:52:20.074Z,99219.53
2023-01-29T17:54:52.758Z,99225.61
2023-01-29T17:57:25.777Z,99230.77
2023-01-29T17:59:58.515Z,99229.00
2023-01-29T18:02:31.058Z,99220.34
2023-01-29T18:05:03.260Z,99216.84
2023-01-29T18:07:35.184Z,99212.52
2023-01-29T18:10:08.568Z,99209.11
2023-01-29T18:12:40.584Z,99205.58
2023-01-29T18:15:13.867Z,99206.38
2023-01-29T18:17:46.390Z,99207.19
2023-01-29T18:20:21.713Z,99206.33
2023-01-29T18:22:54.812Z,99194.31
2023-01-29T18:25:26.864Z,99204.48
2023-01-29T18:27:59.136Z,99198.52
2023-01-29T18:30:31.427Z,99201.10
2023-01-29T18:33:03.570Z,99200.27
2023-01-29T18:35:35.579Z,99196.59
2023-01-29T18:38:08.246Z,99197.60
2023-01-29T18:40:40.494Z,99193.39
2023-01-29T18:43:12.636Z,99199.41
2023-01-29T18:45:44.928Z,99195.08
2023-01-29T18:48:16.868Z,99197.66
2023-01-29T18:50:49.895Z,99189.09
2023-01-29T18:53:22.308Z,99197.63
2023-01-29T18:56:05.719Z,99192.47
2023-01-29T18:58:38.970Z,99187.34
2023-01-29T19:01:12.216Z,99197.60
2023-01-29T19:03:44.821Z,99192.32
2023-01-29T19:06:16.921Z,99194.10
2023-01-29T19:08:49.621Z,99192.41
2023-01-29T19:11:21.708Z,99183.72
2023-01-29T19:13:54.929Z,99180.22
2023-01-29T19:16:27.412Z,99175.98
2023-01-29T19:19:00.095Z,99178.56
2023-01-29T19:21:33.741Z,99169.09
2023-01-29T19:24:06.525Z,99169.92
2023-01-29T19:26:38.791Z,99169.77
2023-01-29T19:29:10.835Z,99170.72
2023-01-29T19:31:43.249Z,99176.72
2023-01-29T19:34:15.259Z,99173.22
2023-01-29T19:36:47.489Z,99157.81
2023-01-29T19:39:19.492Z,99162.19
2023-01-29T19:41:51.506Z,99157.08
2023-01-29T19:44:23.574Z,99158.70
2023-01-29T19:46:56.602Z,99161.45
2023-01-29T19:49:28.839Z,99157.14
2023-01-29T19:52:01.590Z,99147.65
2023-01-29T19:54:33.856Z,99147.59
2023-01-29T19:57:07.657Z,99137.33
2023-01-29T19:59:39.723Z,99141.63
2023-01-29T20:02:11.803Z,99138.95
2023-01-29T20:04:43.802Z,99149.22
2023-01-29T20:07:16.272Z,99150.05
2023-01-29T20:09:52.604Z,99149.13
2023-01-29T20:12:24.881Z,99145.68
2023-01-29T20:14:57.018Z,99137.14
2023-01-29T20:17:29.118Z,99130.31
2023-01-29T20:20:04.013Z,99121.75
2023-01-29T20:22:35.853Z,99120.83
2023-01-29T20:25:08.365Z,99119.09
2023-01-29T20:27:40.439Z,99113.14
2023-01-29T20:30:13.143Z,99109.73
2023-01-29T20:32:45.163Z,99113.14
2023-01-29T20:35:17.632Z,99105.40
2023-01-29T20:37:49.710Z,99097.72
2023-01-29T20:40:21.751Z,99103.77
2023-01-29T20:42:54.326Z,99103.77
2023-01-29T20:45:26.432Z,99100.33
2023-01-29T20:47:59.119Z,99092.62
2023-01-29T20:50:31.805Z,99092.69
2023-01-29T20:53:04.238Z,99090.93
2023-01-29T20:55:36.447Z,99097.75
2023-01-29T20:58:09.281Z,99096.03
2023-01-29T21:00:41.654Z,99091.80
2023-01-29T21:03:13.882Z,99094.41
2023-01-29T21:05:46.498Z,99095.33
2023-01-29T21:08:18.431Z,99096.25
2023-01-29T21:10:52.864Z,99094.56
2023-01-29T21:13:25.014Z,99092.78
2023-01-29T21:15:57.120Z,99084.14
2023-01-29T21:18:29.627Z,99085.86
2023-01-29T21:21:01.740Z,99076.31
2023-01-29T21:23:33.617Z,99073.72
2023-01-29T21:26:06.897Z,99069.36
2023-01-29T21:28:38.853Z,99071.11
2023-01-29T21:31:14.514Z,99069.36
2023-01-29T21:33:46.727Z,99067.73
2023-01-29T21:36:18.836Z,99070.38
2023-01-29T21:38:50.741Z,99080.77
2023-01-29T21:41:24.319Z,99082.45
2023-01-29T21:43:56.313Z,99072.16
2023-01-29T21:46:28.507Z,99067.86
2023-01-29T21:49:00.562Z,99065.28
2023-01-29T21:51:32.839Z,99069.58
2023-01-29T21:54:05.035Z,99073.92
2023-01-29T21:56:37.156Z,99068.81
2023-01-29T21:59:09.839Z,99056.81
2023-01-29T22:01:42.005Z,99066.27
2023-01-29T22:04:15.786Z,99068.84
2023-01-29T22:06:47.747Z,99066.23
2023-01-29T22:09:19.855Z,99066.78
2023-01-29T22:11:51.925Z,99062.70
2023-01-29T22:14:23.963Z,99063.59
2023-01-29T22:16:55.889Z,99061.08
2023-01-29T22:19:29.337Z,99053.40
2023-01-29T22:22:01.289Z,99051.71
2023-01-29T22:24:33.161Z,99036.30
2023-01-29T22:27:05.167Z,99032.02
2023-01-29T22:29:37.254Z,99029.41
2023-01-29T22:32:09.349Z,99020.72
2023-01-29T22:34:41.447Z,99019.89
2023-01-29T22:37:13.576Z,99019.00
2023-01-29T22:39:45.838Z,99013.01
2023-01-29T22:42:21.088Z,99018.97
2023-01-29T22:44:53.063Z,99000.11
2023-01-29T22:47:24.958Z,98995.02
2023-01-29T22:49:56.796Z,98992.44
2023-01-29T22:52:28.779Z,98983.04
2023-01-29T22:55:00.726Z,98991.64
2023-01-29T22:57:32.894Z,98986.48
2023-01-29T23:00:07.500Z,98987.31
2023-01-29T23:02:39.498Z,98982.15
2023-01-29T23:05:11.659Z,98980.39
2023-01-29T23:07:43.659Z,98979.50
2023-01-29T23:10:16.883Z,98974.34
2023-01-29T23:12:49.343Z,98983.60
2023-01-29T23:15:21.286Z,98967.22
2023-01-29T23:17:53.389Z,98956.11
2023-01-29T23:20:25.359Z,98962.13
2023-01-29T23:22:57.515Z,98952.77
2023-01-29T23:25:31.151Z,98963.95
2023-01-29T23:28:03.247Z,98953.66
2023-01-29T23:30:35.562Z,98949.34
2023-01-29T23:33:07.724Z,98945.93
2023-01-29T23:35:39.943Z,98943.34
2023-01-29T23:38:11.878Z,98950.27
2023-01-29T23:40:46.776Z,98941.77
2023-01-29T23:43:20.288Z,98933.98
2023-01-29T23:45:52.238Z,98938.98
2023-01-29T23:48:24.763Z,98937.33
2023-01-29T23:50:57.270Z,98927.14
2023-01-29T23:53:29.367Z,98920.33
2023-01-29T23:56:03.850Z,98920.41
2023-01-29T23:58:35.920Z,98908.26
